sensor_id;sensor_type;location;lat;lon;timestamp;P1;durP1;ratioP1;P2;durP2;ratioP2
32094;SDS011;18608;53.688;10.748;2022-09-27T00:01:38;7.80;;;2.40;;
32094;SDS011;18608;53.688;10.748;2022-09-27T00:04:04;2.60;;;2.40;;
32094;SDS011;18608;53.688;10.748;2022-09-27T00:06:30;2.77;;;2.57;;
32094;SDS011;18608;53.688;10.748;2022-09-27T00:08:56;4.60;;;2.00;;
32094;SDS011;18608;53.688;10.748;2022-09-27T00:11:27;8.40;;;3.17;;
32094;SDS011;18608;53.688;10.748;2022-09-27T00:13:58;2.40;;;2.20;;
32094;SDS011;18608;53.688;10.748;2022-09-27T00:16:25;3.80;;;2.43;;
32094;SDS011;18608;53.688;10.748;2022-09-27T00:18:52;3.10;;;2.70;;
32094;SDS011;18608;53.688;10.748;2022-09-27T00:21:21;3.43;;;2.70;;
32094;SDS011;18608;53.688;10.748;2022-09-27T00:23:47;7.13;;;3.00;;
32094;SDS011;18608;53.688;10.748;2022-09-27T00:26:13;11.43;;;2.70;;
32094;SDS011;18608;53.688;10.748;2022-09-27T00:28:39;5.27;;;2.60;;
32094;SDS011;18608;53.688;10.748;2022-09-27T00:31:10;3.37;;;3.07;;
32094;SDS011;18608;53.688;10.748;2022-09-27T00:33:45;5.90;;;2.80;;
32094;SDS011;18608;53.688;10.748;2022-09-27T00:36:12;8.83;;;3.90;;
32094;SDS011;18608;53.688;10.748;2022-09-27T00:38:39;2.90;;;2.70;;
32094;SDS011;18608;53.688;10.748;2022-09-27T00:41:05;3.63;;;3.00;;
32094;SDS011;18608;53.688;10.748;2022-09-27T00:43:44;3.77;;;3.50;;
32094;SDS011;18608;53.688;10.748;2022-09-27T00:46:10;4.13;;;3.77;;
32094;SDS011;18608;53.688;10.748;2022-09-27T00:48:39;3.97;;;3.47;;
32094;SDS011;18608;53.688;10.748;2022-09-27T00:51:05;3.60;;;3.23;;
32094;SDS011;18608;53.688;10.748;2022-09-27T00:53:34;3.37;;;3.17;;
32094;SDS011;18608;53.688;10.748;2022-09-27T00:56:16;7.10;;;2.60;;
32094;SDS011;18608;53.688;10.748;2022-09-27T00:58:48;6.13;;;3.77;;
32094;SDS011;18608;53.688;10.748;2022-09-27T01:01:18;5.53;;;3.73;;
32094;SDS011;18608;53.688;10.748;2022-09-27T01:06:29;5.27;;;3.90;;
32094;SDS011;18608;53.688;10.748;2022-09-27T01:08:55;4.13;;;3.73;;
32094;SDS011;18608;53.688;10.748;2022-09-27T01:25:42;5.40;;;4.40;;
32094;SDS011;18608;53.688;10.748;2022-09-27T01:31:16;5.30;;;4.47;;
32094;SDS011;18608;53.688;10.748;2022-09-27T01:36:54;5.23;;;4.63;;
32094;SDS011;18608;53.688;10.748;2022-09-27T01:42:11;10.87;;;4.97;;
32094;SDS011;18608;53.688;10.748;2022-09-27T01:45:06;6.60;;;4.97;;
32094;SDS011;18608;53.688;10.748;2022-09-27T01:47:40;4.60;;;4.13;;
32094;SDS011;18608;53.688;10.748;2022-09-27T01:50:15;6.33;;;4.60;;
32094;SDS011;18608;53.688;10.748;2022-09-27T01:52:51;6.23;;;5.07;;
32094;SDS011;18608;53.688;10.748;2022-09-27T01:55:24;8.00;;;4.77;;
32094;SDS011;18608;53.688;10.748;2022-09-27T01:58:01;4.27;;;3.97;;
32094;SDS011;18608;53.688;10.748;2022-09-27T02:00:36;6.60;;;5.87;;
32094;SDS011;18608;53.688;10.748;2022-09-27T02:03:06;6.40;;;5.80;;
32094;SDS011;18608;53.688;10.748;2022-09-27T02:05:39;5.13;;;4.63;;
32094;SDS011;18608;53.688;10.748;2022-09-27T02:08:21;8.03;;;4.63;;
32094;SDS011;18608;53.688;10.748;2022-09-27T02:10:53;8.50;;;5.00;;
32094;SDS011;18608;53.688;10.748;2022-09-27T02:13:21;6.03;;;4.20;;
32094;SDS011;18608;53.688;10.748;2022-09-27T02:16:13;15.60;;;5.37;;
32094;SDS011;18608;53.688;10.748;2022-09-27T02:18:50;5.47;;;4.30;;
32094;SDS011;18608;53.688;10.748;2022-09-27T02:21:17;6.23;;;4.73;;
32094;SDS011;18608;53.688;10.748;2022-09-27T02:23:48;4.93;;;4.40;;
32094;SDS011;18608;53.688;10.748;2022-09-27T02:26:19;4.90;;;4.40;;
32094;SDS011;18608;53.688;10.748;2022-09-27T02:29:02;7.10;;;5.17;;
32094;SDS011;18608;53.688;10.748;2022-09-27T02:31:42;9.43;;;4.87;;
32094;SDS011;18608;53.688;10.748;2022-09-27T02:34:10;5.33;;;4.83;;
32094;SDS011;18608;53.688;10.748;2022-09-27T02:36:42;5.67;;;5.17;;
32094;SDS011;18608;53.688;10.748;2022-09-27T02:39:08;8.23;;;4.20;;
32094;SDS011;18608;53.688;10.748;2022-09-27T02:41:35;6.30;;;5.00;;
32094;SDS011;18608;53.688;10.748;2022-09-27T02:44:03;5.23;;;4.60;;
32094;SDS011;18608;53.688;10.748;2022-09-27T02:57:35;5.00;;;4.50;;
32094;SDS011;18608;53.688;10.748;2022-09-27T03:00:19;4.90;;;4.50;;
32094;SDS011;18608;53.688;10.748;2022-09-27T03:02:50;6.27;;;4.33;;
32094;SDS011;18608;53.688;10.748;2022-09-27T03:05:28;6.30;;;5.70;;
32094;SDS011;18608;53.688;10.748;2022-09-27T03:08:05;12.50;;;5.83;;
32094;SDS011;18608;53.688;10.748;2022-09-27T03:10:31;7.23;;;4.90;;
32094;SDS011;18608;53.688;10.748;2022-09-27T03:12:57;5.47;;;4.97;;
32094;SDS011;18608;53.688;10.748;2022-09-27T03:15:23;8.30;;;5.17;;
32094;SDS011;18608;53.688;10.748;2022-09-27T03:17:49;6.53;;;4.77;;
32094;SDS011;18608;53.688;10.748;2022-09-27T03:20:15;7.87;;;6.00;;
32094;SDS011;18608;53.688;10.748;2022-09-27T03:22:42;7.40;;;5.10;;
32094;SDS011;18608;53.688;10.748;2022-09-27T03:25:08;5.73;;;5.13;;
32094;SDS011;18608;53.688;10.748;2022-09-27T03:27:34;5.87;;;5.27;;
32094;SDS011;18608;53.688;10.748;2022-09-27T03:30:00;7.67;;;5.47;;
32094;SDS011;18608;53.688;10.748;2022-09-27T03:32:26;5.73;;;5.23;;
32094;SDS011;18608;53.688;10.748;2022-09-27T03:34:52;7.93;;;5.37;;
32094;SDS011;18608;53.688;10.748;2022-09-27T03:37:19;6.53;;;5.77;;
32094;SDS011;18608;53.688;10.748;2022-09-27T03:39:46;7.40;;;5.80;;
32094;SDS011;18608;53.688;10.748;2022-09-27T03:42:11;10.03;;;6.00;;
32094;SDS011;18608;53.688;10.748;2022-09-27T03:44:37;6.13;;;5.10;;
32094;SDS011;18608;53.688;10.748;2022-09-27T03:47:04;6.53;;;5.53;;
32094;SDS011;18608;53.688;10.748;2022-09-27T03:49:30;7.90;;;5.00;;
32094;SDS011;18608;53.688;10.748;2022-09-27T03:51:56;5.80;;;5.10;;
32094;SDS011;18608;53.688;10.748;2022-09-27T03:54:22;6.83;;;6.23;;
32094;SDS011;18608;53.688;10.748;2022-09-27T03:56:49;19.57;;;6.00;;
32094;SDS011;18608;53.688;10.748;2022-09-27T03:59:16;9.67;;;6.17;;
32094;SDS011;18608;53.688;10.748;2022-09-27T04:01:42;8.00;;;5.90;;
32094;SDS011;18608;53.688;10.748;2022-09-27T04:04:09;7.37;;;4.90;;
32094;SDS011;18608;53.688;10.748;2022-09-27T04:06:35;8.00;;;6.10;;
32094;SDS011;18608;53.688;10.748;2022-09-27T04:09:01;8.47;;;5.93;;
32094;SDS011;18608;53.688;10.748;2022-09-27T04:11:27;8.27;;;5.70;;
32094;SDS011;18608;53.688;10.748;2022-09-27T04:13:53;7.57;;;5.60;;
32094;SDS011;18608;53.688;10.748;2022-09-27T04:16:20;6.17;;;5.43;;
32094;SDS011;18608;53.688;10.748;2022-09-27T04:18:46;6.40;;;4.90;;
32094;SDS011;18608;53.688;10.748;2022-09-27T04:21:12;8.07;;;5.20;;
32094;SDS011;18608;53.688;10.748;2022-09-27T04:23:38;6.93;;;4.70;;
32094;SDS011;18608;53.688;10.748;2022-09-27T04:26:04;5.07;;;4.57;;
32094;SDS011;18608;53.688;10.748;2022-09-27T04:28:30;5.03;;;4.00;;
32094;SDS011;18608;53.688;10.748;2022-09-27T04:30:57;9.93;;;4.80;;
32094;SDS011;18608;53.688;10.748;2022-09-27T04:33:23;4.93;;;4.50;;
32094;SDS011;18608;53.688;10.748;2022-09-27T04:35:49;6.60;;;5.00;;
32094;SDS011;18608;53.688;10.748;2022-09-27T04:38:34;7.73;;;4.47;;
32094;SDS011;18608;53.688;10.748;2022-09-27T04:41:00;6.70;;;4.60;;
32094;SDS011;18608;53.688;10.748;2022-09-27T04:43:26;5.97;;;5.03;;
32094;SDS011;18608;53.688;10.748;2022-09-27T04:45:52;7.47;;;5.87;;
32094;SDS011;18608;53.688;10.748;2022-09-27T04:48:18;5.43;;;4.93;;
32094;SDS011;18608;53.688;10.748;2022-09-27T04:50:44;5.73;;;4.63;;
32094;SDS011;18608;53.688;10.748;2022-09-27T04:53:13;4.83;;;4.43;;
32094;SDS011;18608;53.688;10.748;2022-09-27T04:55:43;5.83;;;4.97;;
32094;SDS011;18608;53.688;10.748;2022-09-27T04:58:14;6.67;;;5.07;;
32094;SDS011;18608;53.688;10.748;2022-09-27T05:00:39;6.80;;;6.10;;
32094;SDS011;18608;53.688;10.748;2022-09-27T05:03:07;6.53;;;4.90;;
32094;SDS011;18608;53.688;10.748;2022-09-27T05:05:32;6.70;;;5.30;;
32094;SDS011;18608;53.688;10.748;2022-09-27T05:07:58;5.63;;;5.10;;
32094;SDS011;18608;53.688;10.748;2022-09-27T05:10:24;5.87;;;5.27;;
32094;SDS011;18608;53.688;10.748;2022-09-27T05:12:50;5.83;;;5.30;;
32094;SDS011;18608;53.688;10.748;2022-09-27T05:15:15;10.70;;;6.10;;
32094;SDS011;18608;53.688;10.748;2022-09-27T05:17:41;5.90;;;4.90;;
32094;SDS011;18608;53.688;10.748;2022-09-27T05:20:07;12.83;;;5.17;;
32094;SDS011;18608;53.688;10.748;2022-09-27T05:22:34;6.80;;;4.80;;
32094;SDS011;18608;53.688;10.748;2022-09-27T05:25:00;5.80;;;4.80;;
32094;SDS011;18608;53.688;10.748;2022-09-27T05:27:25;19.20;;;5.70;;
32094;SDS011;18608;53.688;10.748;2022-09-27T05:29:54;8.63;;;5.83;;
32094;SDS011;18608;53.688;10.748;2022-09-27T05:32:20;4.87;;;4.40;;
32094;SDS011;18608;53.688;10.748;2022-09-27T05:34:47;5.73;;;5.20;;
32094;SDS011;18608;53.688;10.748;2022-09-27T05:37:14;6.90;;;6.20;;
32094;SDS011;18608;53.688;10.748;2022-09-27T05:39:39;7.60;;;5.50;;
32094;SDS011;18608;53.688;10.748;2022-09-27T05:42:05;6.60;;;5.77;;
32094;SDS011;18608;53.688;10.748;2022-09-27T05:44:34;6.77;;;5.73;;
32094;SDS011;18608;53.688;10.748;2022-09-27T05:47:00;6.07;;;5.43;;
32094;SDS011;18608;53.688;10.748;2022-09-27T05:49:29;7.10;;;5.43;;
32094;SDS011;18608;53.688;10.748;2022-09-27T05:51:56;8.00;;;5.70;;
32094;SDS011;18608;53.688;10.748;2022-09-27T05:54:21;8.10;;;6.20;;
32094;SDS011;18608;53.688;10.748;2022-09-27T05:56:47;7.67;;;5.53;;
32094;SDS011;18608;53.688;10.748;2022-09-27T05:59:13;5.87;;;5.30;;
32094;SDS011;18608;53.688;10.748;2022-09-27T06:01:39;14.00;;;5.47;;
32094;SDS011;18608;53.688;10.748;2022-09-27T06:04:05;7.20;;;5.67;;
32094;SDS011;18608;53.688;10.748;2022-09-27T06:06:30;5.73;;;5.23;;
32094;SDS011;18608;53.688;10.748;2022-09-27T06:08:58;8.23;;;6.33;;
32094;SDS011;18608;53.688;10.748;2022-09-27T06:11:25;6.40;;;5.80;;
32094;SDS011;18608;53.688;10.748;2022-09-27T06:13:51;7.00;;;6.40;;
32094;SDS011;18608;53.688;10.748;2022-09-27T06:16:17;6.63;;;5.93;;
32094;SDS011;18608;53.688;10.748;2022-09-27T06:18:43;6.07;;;5.47;;
32094;SDS011;18608;53.688;10.748;2022-09-27T06:21:08;8.23;;;6.80;;
32094;SDS011;18608;53.688;10.748;2022-09-27T06:23:34;8.17;;;6.33;;
32094;SDS011;18608;53.688;10.748;2022-09-27T06:26:04;7.50;;;6.07;;
32094;SDS011;18608;53.688;10.748;2022-09-27T06:28:32;5.70;;;5.20;;
32094;SDS011;18608;53.688;10.748;2022-09-27T06:31:01;7.43;;;5.80;;
32094;SDS011;18608;53.688;10.748;2022-09-27T06:33:29;12.07;;;6.33;;
32094;SDS011;18608;53.688;10.748;2022-09-27T06:35:54;7.23;;;6.17;;
32094;SDS011;18608;53.688;10.748;2022-09-27T06:38:20;8.17;;;5.57;;
32094;SDS011;18608;53.688;10.748;2022-09-27T06:40:47;7.20;;;6.33;;
32094;SDS011;18608;53.688;10.748;2022-09-27T06:43:14;7.13;;;6.00;;
32094;SDS011;18608;53.688;10.748;2022-09-27T06:45:41;9.13;;;6.77;;
32094;SDS011;18608;53.688;10.748;2022-09-27T06:48:08;8.83;;;6.97;;
32094;SDS011;18608;53.688;10.748;2022-09-27T06:50:37;7.00;;;6.00;;
32094;SDS011;18608;53.688;10.748;2022-09-27T06:53:04;6.97;;;5.60;;
32094;SDS011;18608;53.688;10.748;2022-09-27T06:55:31;7.57;;;5.87;;
32094;SDS011;18608;53.688;10.748;2022-09-27T06:57:58;6.80;;;5.83;;
32094;SDS011;18608;53.688;10.748;2022-09-27T07:00:44;6.90;;;5.87;;
32094;SDS011;18608;53.688;10.748;2022-09-27T07:03:11;8.80;;;6.97;;
32094;SDS011;18608;53.688;10.748;2022-09-27T07:05:38;9.90;;;7.13;;
32094;SDS011;18608;53.688;10.748;2022-09-27T07:08:06;11.83;;;6.50;;
32094;SDS011;18608;53.688;10.748;2022-09-27T07:10:36;9.10;;;7.50;;
32094;SDS011;18608;53.688;10.748;2022-09-27T07:13:06;8.63;;;5.90;;
32094;SDS011;18608;53.688;10.748;2022-09-27T07:15:36;8.10;;;6.40;;
32094;SDS011;18608;53.688;10.748;2022-09-27T07:18:04;8.10;;;6.83;;
32094;SDS011;18608;53.688;10.748;2022-09-27T07:20:31;7.93;;;5.93;;
32094;SDS011;18608;53.688;10.748;2022-09-27T07:23:00;11.97;;;6.27;;
32094;SDS011;18608;53.688;10.748;2022-09-27T07:25:25;7.17;;;5.57;;
32094;SDS011;18608;53.688;10.748;2022-09-27T07:27:51;7.30;;;5.10;;
32094;SDS011;18608;53.688;10.748;2022-09-27T07:30:18;7.27;;;5.80;;
32094;SDS011;18608;53.688;10.748;2022-09-27T07:32:45;5.70;;;5.10;;
32094;SDS011;18608;53.688;10.748;2022-09-27T07:35:11;6.63;;;4.97;;
32094;SDS011;18608;53.688;10.748;2022-09-27T07:37:39;7.43;;;5.50;;
32094;SDS011;18608;53.688;10.748;2022-09-27T07:40:06;6.87;;;5.27;;
32094;SDS011;18608;53.688;10.748;2022-09-27T07:42:33;6.00;;;5.40;;
32094;SDS011;18608;53.688;10.748;2022-09-27T07:45:03;5.30;;;4.63;;
32094;SDS011;18608;53.688;10.748;2022-09-27T07:47:30;5.67;;;5.17;;
32094;SDS011;18608;53.688;10.748;2022-09-27T07:49:56;8.27;;;4.83;;
32094;SDS011;18608;53.688;10.748;2022-09-27T07:52:22;5.57;;;5.03;;
32094;SDS011;18608;53.688;10.748;2022-09-27T07:54:48;6.73;;;5.10;;
32094;SDS011;18608;53.688;10.748;2022-09-27T07:57:14;7.40;;;6.20;;
32094;SDS011;18608;53.688;10.748;2022-09-27T07:59:40;9.70;;;6.07;;
32094;SDS011;18608;53.688;10.748;2022-09-27T08:02:13;6.73;;;5.97;;
32094;SDS011;18608;53.688;10.748;2022-09-27T08:04:40;8.47;;;5.97;;
32094;SDS011;18608;53.688;10.748;2022-09-27T08:07:11;6.13;;;5.53;;
32094;SDS011;18608;53.688;10.748;2022-09-27T08:09:37;9.20;;;7.23;;
32094;SDS011;18608;53.688;10.748;2022-09-27T08:12:03;6.70;;;6.00;;
32094;SDS011;18608;53.688;10.748;2022-09-27T08:14:29;13.43;;;6.77;;
32094;SDS011;18608;53.688;10.748;2022-09-27T08:16:55;12.40;;;6.17;;
32094;SDS011;18608;53.688;10.748;2022-09-27T08:19:22;8.13;;;6.07;;
32094;SDS011;18608;53.688;10.748;2022-09-27T08:21:47;9.23;;;5.07;;
32094;SDS011;18608;53.688;10.748;2022-09-27T08:24:18;4.70;;;4.20;;
32094;SDS011;18608;53.688;10.748;2022-09-27T08:26:45;6.13;;;4.67;;
32094;SDS011;18608;53.688;10.748;2022-09-27T08:29:11;6.00;;;4.30;;
32094;SDS011;18608;53.688;10.748;2022-09-27T08:31:37;5.67;;;5.17;;
32094;SDS011;18608;53.688;10.748;2022-09-27T08:34:02;4.87;;;3.07;;
32094;SDS011;18608;53.688;10.748;2022-09-27T08:36:29;3.80;;;3.43;;
32094;SDS011;18608;53.688;10.748;2022-09-27T08:38:55;4.53;;;4.00;;
32094;SDS011;18608;53.688;10.748;2022-09-27T08:43:59;2.77;;;2.57;;
32094;SDS011;18608;53.688;10.748;2022-09-27T08:52:24;3.03;;;2.50;;
32094;SDS011;18608;53.688;10.748;2022-09-27T08:54:54;2.60;;;2.40;;
32094;SDS011;18608;53.688;10.748;2022-09-27T08:57:22;2.40;;;2.20;;
32094;SDS011;18608;53.688;10.748;2022-09-27T08:59:52;3.07;;;1.77;;
32094;SDS011;18608;53.688;10.748;2022-09-27T09:02:25;2.60;;;2.30;;
32094;SDS011;18608;53.688;10.748;2022-09-27T09:05:10;2.90;;;2.60;;
32094;SDS011;18608;53.688;10.748;2022-09-27T09:25:20;1.90;;;1.80;;
32094;SDS011;18608;53.688;10.748;2022-09-27T09:36:29;1.50;;;1.40;;
32094;SDS011;18608;53.688;10.748;2022-09-27T09:39:07;2.17;;;2.07;;
32094;SDS011;18608;53.688;10.748;2022-09-27T09:41:55;2.40;;;1.50;;
32094;SDS011;18608;53.688;10.748;2022-09-27T09:44:31;3.40;;;1.70;;
32094;SDS011;18608;53.688;10.748;2022-09-27T09:47:06;1.67;;;1.57;;
32094;SDS011;18608;53.688;10.748;2022-09-27T09:49:50;3.80;;;1.30;;
32094;SDS011;18608;53.688;10.748;2022-09-27T09:52:26;2.23;;;1.53;;
32094;SDS011;18608;53.688;10.748;2022-09-27T09:55:05;4.70;;;1.40;;
32094;SDS011;18608;53.688;10.748;2022-09-27T09:57:42;1.83;;;1.30;;
32094;SDS011;18608;53.688;10.748;2022-09-27T10:00:31;1.27;;;1.17;;
32094;SDS011;18608;53.688;10.748;2022-09-27T10:02:58;1.43;;;1.33;;
32094;SDS011;18608;53.688;10.748;2022-09-27T10:05:25;4.37;;;2.90;;
32094;SDS011;18608;53.688;10.748;2022-09-27T10:07:52;2.80;;;1.83;;
32094;SDS011;18608;53.688;10.748;2022-09-27T10:10:21;1.47;;;1.27;;
32094;SDS011;18608;53.688;10.748;2022-09-27T10:12:47;2.90;;;1.30;;
32094;SDS011;18608;53.688;10.748;2022-09-27T10:15:21;2.23;;;1.80;;
32094;SDS011;18608;53.688;10.748;2022-09-27T10:17:50;1.40;;;1.30;;
32094;SDS011;18608;53.688;10.748;2022-09-27T10:23:10;2.27;;;0.90;;
32094;SDS011;18608;53.688;10.748;2022-09-27T10:28:28;1.03;;;1.03;;
32094;SDS011;18608;53.688;10.748;2022-09-27T10:31:09;1.30;;;1.20;;
32094;SDS011;18608;53.688;10.748;2022-09-27T10:33:53;1.10;;;1.00;;
32094;SDS011;18608;53.688;10.748;2022-09-27T10:36:29;0.90;;;0.90;;
32094;SDS011;18608;53.688;10.748;2022-09-27T10:39:01;0.87;;;0.87;;
32094;SDS011;18608;53.688;10.748;2022-09-27T10:41:32;2.33;;;1.10;;
32094;SDS011;18608;53.688;10.748;2022-09-27T10:46:45;1.60;;;1.50;;
32094;SDS011;18608;53.688;10.748;2022-09-27T10:51:41;5.13;;;1.60;;
32094;SDS011;18608;53.688;10.748;2022-09-27T10:59:32;1.27;;;1.27;;
32094;SDS011;18608;53.688;10.748;2022-09-27T11:02:00;1.50;;;1.40;;
32094;SDS011;18608;53.688;10.748;2022-09-27T11:04:31;1.53;;;1.43;;
32094;SDS011;18608;53.688;10.748;2022-09-27T11:07:05;1.03;;;1.03;;
32094;SDS011;18608;53.688;10.748;2022-09-27T11:12:19;1.33;;;1.27;;
32094;SDS011;18608;53.688;10.748;2022-09-27T11:15:05;3.03;;;1.13;;
32094;SDS011;18608;53.688;10.748;2022-09-27T11:20:28;2.17;;;1.37;;
32094;SDS011;18608;53.688;10.748;2022-09-27T11:31:09;2.30;;;1.17;;
32094;SDS011;18608;53.688;10.748;2022-09-27T11:39:47;1.50;;;1.40;;
32094;SDS011;18608;53.688;10.748;2022-09-27T11:42:37;1.57;;;1.47;;
32094;SDS011;18608;53.688;10.748;2022-09-27T11:45:31;2.23;;;1.67;;
32094;SDS011;18608;53.688;10.748;2022-09-27T12:06:33;1.83;;;1.73;;
32094;SDS011;18608;53.688;10.748;2022-09-27T12:09:17;0.93;;;0.93;;
32094;SDS011;18608;53.688;10.748;2022-09-27T12:12:32;1.40;;;1.30;;
32094;SDS011;18608;53.688;10.748;2022-09-27T12:15:25;1.20;;;1.20;;
32094;SDS011;18608;53.688;10.748;2022-09-27T12:17:38;1.53;;;1.43;;
32094;SDS011;18608;53.688;10.748;2022-09-27T12:20:41;1.20;;;1.20;;
32094;SDS011;18608;53.688;10.748;2022-09-27T12:23:02;1.37;;;1.17;;
32094;SDS011;18608;53.688;10.748;2022-09-27T12:25:33;3.03;;;1.30;;
32094;SDS011;18608;53.688;10.748;2022-09-27T12:28:05;0.90;;;0.90;;
32094;SDS011;18608;53.688;10.748;2022-09-27T12:30:54;1.73;;;1.63;;
32094;SDS011;18608;53.688;10.748;2022-09-27T12:33:28;1.57;;;1.07;;
32094;SDS011;18608;53.688;10.748;2022-09-27T12:36:03;2.70;;;1.30;;
32094;SDS011;18608;53.688;10.748;2022-09-27T12:39:08;1.50;;;1.30;;
32094;SDS011;18608;53.688;10.748;2022-09-27T12:41:29;1.30;;;1.20;;
32094;SDS011;18608;53.688;10.748;2022-09-27T12:44:00;3.50;;;1.30;;
32094;SDS011;18608;53.688;10.748;2022-09-27T12:49:26;1.27;;;1.10;;
32094;SDS011;18608;53.688;10.748;2022-09-27T12:52:12;3.00;;;1.87;;
32094;SDS011;18608;53.688;10.748;2022-09-27T12:54:50;1.30;;;1.27;;
32094;SDS011;18608;53.688;10.748;2022-09-27T13:00:17;1.30;;;1.20;;
32094;SDS011;18608;53.688;10.748;2022-09-27T13:10:44;2.70;;;1.43;;
32094;SDS011;18608;53.688;10.748;2022-09-27T13:13:23;0.93;;;0.93;;
32094;SDS011;18608;53.688;10.748;2022-09-27T13:15:52;1.10;;;1.10;;
32094;SDS011;18608;53.688;10.748;2022-09-27T13:21:06;1.30;;;1.20;;
32094;SDS011;18608;53.688;10.748;2022-09-27T13:30:55;4.30;;;0.90;;
32094;SDS011;18608;53.688;10.748;2022-09-27T13:39:34;1.30;;;1.20;;
32094;SDS011;18608;53.688;10.748;2022-09-27T13:46:42;2.40;;;1.20;;
32094;SDS011;18608;53.688;10.748;2022-09-27T13:51:51;2.20;;;1.33;;
32094;SDS011;18608;53.688;10.748;2022-09-27T13:54:35;1.00;;;1.00;;
32094;SDS011;18608;53.688;10.748;2022-09-27T13:57:03;1.10;;;1.00;;
32094;SDS011;18608;53.688;10.748;2022-09-27T13:59:52;2.83;;;1.23;;
32094;SDS011;18608;53.688;10.748;2022-09-27T14:02:26;1.40;;;1.30;;
32094;SDS011;18608;53.688;10.748;2022-09-27T14:04:55;1.60;;;1.50;;
32094;SDS011;18608;53.688;10.748;2022-09-27T14:07:25;1.90;;;1.80;;
32094;SDS011;18608;53.688;10.748;2022-09-27T14:09:59;1.73;;;1.27;;
32094;SDS011;18608;53.688;10.748;2022-09-27T14:12:32;1.83;;;1.73;;
32094;SDS011;18608;53.688;10.748;2022-09-27T14:15:00;1.73;;;1.13;;
32094;SDS011;18608;53.688;10.748;2022-09-27T14:17:28;1.70;;;1.60;;
32094;SDS011;18608;53.688;10.748;2022-09-27T14:19:55;3.33;;;1.70;;
32094;SDS011;18608;53.688;10.748;2022-09-27T14:22:21;1.40;;;1.40;;
32094;SDS011;18608;53.688;10.748;2022-09-27T14:24:49;1.53;;;1.43;;
32094;SDS011;18608;53.688;10.748;2022-09-27T14:27:22;1.83;;;1.67;;
32094;SDS011;18608;53.688;10.748;2022-09-27T14:29:54;3.40;;;1.57;;
32094;SDS011;18608;53.688;10.748;2022-09-27T14:32:28;1.63;;;1.53;;
32094;SDS011;18608;53.688;10.748;2022-09-27T14:35:17;3.37;;;1.73;;
32094;SDS011;18608;53.688;10.748;2022-09-27T14:38:05;2.70;;;1.80;;
32094;SDS011;18608;53.688;10.748;2022-09-27T14:40:36;1.93;;;1.83;;
32094;SDS011;18608;53.688;10.748;2022-09-27T14:43:19;1.43;;;1.43;;
32094;SDS011;18608;53.688;10.748;2022-09-27T14:45:49;1.57;;;1.47;;
32094;SDS011;18608;53.688;10.748;2022-09-27T14:48:19;1.83;;;1.40;;
32094;SDS011;18608;53.688;10.748;2022-09-27T14:50:57;1.20;;;1.13;;
32094;SDS011;18608;53.688;10.748;2022-09-27T14:53:29;1.90;;;1.20;;
32094;SDS011;18608;53.688;10.748;2022-09-27T14:56:00;1.00;;;1.00;;
32094;SDS011;18608;53.688;10.748;2022-09-27T14:58:27;1.53;;;1.53;;
32094;SDS011;18608;53.688;10.748;2022-09-27T15:00:54;1.40;;;1.33;;
32094;SDS011;18608;53.688;10.748;2022-09-27T15:03:25;4.80;;;1.33;;
32094;SDS011;18608;53.688;10.748;2022-09-27T15:05:56;2.40;;;1.40;;
32094;SDS011;18608;53.688;10.748;2022-09-27T15:08:26;1.70;;;1.60;;
32094;SDS011;18608;53.688;10.748;2022-09-27T15:11:00;1.00;;;1.00;;
32094;SDS011;18608;53.688;10.748;2022-09-27T15:13:29;1.40;;;1.30;;
32094;SDS011;18608;53.688;10.748;2022-09-27T15:15:55;4.50;;;1.20;;
32094;SDS011;18608;53.688;10.748;2022-09-27T15:21:06;2.63;;;1.20;;
32094;SDS011;18608;53.688;10.748;2022-09-27T15:23:35;1.83;;;1.43;;
32094;SDS011;18608;53.688;10.748;2022-09-27T15:26:07;1.93;;;1.83;;
32094;SDS011;18608;53.688;10.748;2022-09-27T15:28:40;2.27;;;1.73;;
32094;SDS011;18608;53.688;10.748;2022-09-27T15:31:07;3.07;;;1.70;;
32094;SDS011;18608;53.688;10.748;2022-09-27T15:33:33;4.67;;;1.50;;
32094;SDS011;18608;53.688;10.748;2022-09-27T15:36:01;2.13;;;1.40;;
32094;SDS011;18608;53.688;10.748;2022-09-27T15:41:10;1.30;;;1.20;;
32094;SDS011;18608;53.688;10.748;2022-09-27T15:43:45;2.00;;;1.90;;
32094;SDS011;18608;53.688;10.748;2022-09-27T15:51:42;1.20;;;1.10;;
32094;SDS011;18608;53.688;10.748;2022-09-27T15:54:10;6.00;;;1.70;;
32094;SDS011;18608;53.688;10.748;2022-09-27T15:56:36;10.60;;;1.97;;
32094;SDS011;18608;53.688;10.748;2022-09-27T15:59:03;1.50;;;1.40;;
32094;SDS011;18608;53.688;10.748;2022-09-27T16:01:29;1.57;;;1.13;;
32094;SDS011;18608;53.688;10.748;2022-09-27T16:03:57;2.50;;;1.47;;
32094;SDS011;18608;53.688;10.748;2022-09-27T16:06:23;2.00;;;1.87;;
32094;SDS011;18608;53.688;10.748;2022-09-27T16:08:51;5.37;;;2.60;;
32094;SDS011;18608;53.688;10.748;2022-09-27T16:11:17;3.50;;;2.40;;
32094;SDS011;18608;53.688;10.748;2022-09-27T16:13:43;3.73;;;1.77;;
32094;SDS011;18608;53.688;10.748;2022-09-27T16:16:16;2.60;;;2.40;;
32094;SDS011;18608;53.688;10.748;2022-09-27T16:18:43;2.47;;;2.27;;
32094;SDS011;18608;53.688;10.748;2022-09-27T16:21:10;3.80;;;3.10;;
32094;SDS011;18608;53.688;10.748;2022-09-27T16:23:36;2.83;;;2.40;;
32094;SDS011;18608;53.688;10.748;2022-09-27T16:26:02;1.90;;;1.80;;
32094;SDS011;18608;53.688;10.748;2022-09-27T16:28:29;2.60;;;2.47;;
32094;SDS011;18608;53.688;10.748;2022-09-27T16:30:59;2.77;;;2.33;;
32094;SDS011;18608;53.688;10.748;2022-09-27T16:33:25;2.20;;;2.03;;
32094;SDS011;18608;53.688;10.748;2022-09-27T16:35:51;2.60;;;2.40;;
32094;SDS011;18608;53.688;10.748;2022-09-27T16:38:17;5.10;;;2.90;;
32094;SDS011;18608;53.688;10.748;2022-09-27T16:40:43;2.83;;;2.63;;
32094;SDS011;18608;53.688;10.748;2022-09-27T16:43:09;2.60;;;2.50;;
32094;SDS011;18608;53.688;10.748;2022-09-27T16:45:35;10.20;;;4.13;;
32094;SDS011;18608;53.688;10.748;2022-09-27T16:48:01;4.10;;;3.70;;
32094;SDS011;18608;53.688;10.748;2022-09-27T16:50:27;3.57;;;3.37;;
32094;SDS011;18608;53.688;10.748;2022-09-27T16:53:12;4.70;;;3.13;;
32094;SDS011;18608;53.688;10.748;2022-09-27T16:55:38;2.80;;;2.50;;
32094;SDS011;18608;53.688;10.748;2022-09-27T16:58:04;3.73;;;3.40;;
32094;SDS011;18608;53.688;10.748;2022-09-27T17:00:32;4.07;;;3.70;;
32094;SDS011;18608;53.688;10.748;2022-09-27T17:02:58;4.33;;;3.70;;
32094;SDS011;18608;53.688;10.748;2022-09-27T17:05:24;4.70;;;4.30;;
32094;SDS011;18608;53.688;10.748;2022-09-27T17:07:53;5.83;;;3.20;;
32094;SDS011;18608;53.688;10.748;2022-09-27T17:10:19;3.67;;;3.27;;
32094;SDS011;18608;53.688;10.748;2022-09-27T17:12:45;4.23;;;3.80;;
32094;SDS011;18608;53.688;10.748;2022-09-27T17:15:11;6.30;;;3.87;;
32094;SDS011;18608;53.688;10.748;2022-09-27T17:17:37;7.23;;;4.17;;
32094;SDS011;18608;53.688;10.748;2022-09-27T17:20:03;4.47;;;4.07;;
32094;SDS011;18608;53.688;10.748;2022-09-27T17:22:30;5.33;;;4.10;;
32094;SDS011;18608;53.688;10.748;2022-09-27T17:24:56;4.07;;;3.60;;
32094;SDS011;18608;53.688;10.748;2022-09-27T17:27:22;4.40;;;4.00;;
32094;SDS011;18608;53.688;10.748;2022-09-27T17:29:50;6.63;;;4.77;;
32094;SDS011;18608;53.688;10.748;2022-09-27T17:32:16;9.40;;;8.10;;
32094;SDS011;18608;53.688;10.748;2022-09-27T17:34:48;13.10;;;11.77;;
32094;SDS011;18608;53.688;10.748;2022-09-27T17:37:14;7.40;;;6.53;;
32094;SDS011;18608;53.688;10.748;2022-09-27T17:39:40;7.33;;;5.33;;
32094;SDS011;18608;53.688;10.748;2022-09-27T17:42:06;5.70;;;5.13;;
32094;SDS011;18608;53.688;10.748;2022-09-27T17:44:32;5.50;;;5.00;;